sensor_id;sensor_type;location;lat;lon;timestamp;temperature;humidity
36790;DHT22;22740;52.182;8.780;2023-08-06T00:05:30;14.20;99.90
36790;DHT22;22740;52.182;8.780;2023-08-06T00:11:31;14.20;99.90
36790;DHT22;22740;52.182;8.780;2023-08-06T00:17:33;14.20;99.90
36790;DHT22;22740;52.182;8.780;2023-08-06T00:23:35;14.20;99.90
36790;DHT22;22740;52.182;8.780;2023-08-06T00:29:37;14.10;99.90
36790;DHT22;22740;52.182;8.780;2023-08-06T00:35:39;14.10;99.90
36790;DHT22;22740;52.182;8.780;2023-08-06T00:41:40;14.10;99.90
36790;DHT22;22740;52.182;8.780;2023-08-06T00:47:42;14.00;99.90
36790;DHT22;22740;52.182;8.780;2023-08-06T00:53:44;13.90;99.90
36790;DHT22;22740;52.182;8.780;2023-08-06T00:59:46;14.00;99.90
36790;DHT22;22740;52.182;8.780;2023-08-06T01:05:48;14.10;99.90
36790;DHT22;22740;52.182;8.780;2023-08-06T01:11:54;14.20;99.90
36790;DHT22;22740;52.182;8.780;2023-08-06T01:17:58;14.30;99.90
36790;DHT22;22740;52.182;8.780;2023-08-06T01:24:00;14.30;99.90
36790;DHT22;22740;52.182;8.780;2023-08-06T01:36:07;14.60;99.90
36790;DHT22;22740;52.182;8.780;2023-08-06T01:42:09;14.60;99.90
36790;DHT22;22740;52.182;8.780;2023-08-06T01:48:11;14.30;99.90
36790;DHT22;22740;52.182;8.780;2023-08-06T01:54:13;14.10;99.90
36790;DHT22;22740;52.182;8.780;2023-08-06T02:00:14;14.20;99.90
36790;DHT22;22740;52.182;8.780;2023-08-06T02:06:16;14.10;99.90
36790;DHT22;22740;52.182;8.780;2023-08-06T02:12:18;14.00;99.90
36790;DHT22;22740;52.182;8.780;2023-08-06T02:18:20;14.20;99.90
36790;DHT22;22740;52.182;8.780;2023-08-06T02:24:21;14.30;99.90
36790;DHT22;22740;52.182;8.780;2023-08-06T02:30:23;14.50;99.90
36790;DHT22;22740;52.182;8.780;2023-08-06T02:36:25;14.60;99.90
36790;DHT22;22740;52.182;8.780;2023-08-06T02:42:30;14.60;99.90
36790;DHT22;22740;52.182;8.780;2023-08-06T02:48:32;14.60;99.90
36790;DHT22;22740;52.182;8.780;2023-08-06T02:54:34;14.60;99.90
36790;DHT22;22740;52.182;8.780;2023-08-06T03:00:35;14.60;99.90
36790;DHT22;22740;52.182;8.780;2023-08-06T03:06:37;14.60;99.90
36790;DHT22;22740;52.182;8.780;2023-08-06T03:12:39;14.60;99.90
36790;DHT22;22740;52.182;8.780;2023-08-06T03:18:40;14.50;99.90
36790;DHT22;22740;52.182;8.780;2023-08-06T03:24:42;14.40;99.90
36790;DHT22;22740;52.182;8.780;2023-08-06T03:30:44;14.40;99.90
36790;DHT22;22740;52.182;8.780;2023-08-06T03:36:46;14.40;99.90
36790;DHT22;22740;52.182;8.780;2023-08-06T03:42:48;14.30;99.90
36790;DHT22;22740;52.182;8.780;2023-08-06T03:48:49;14.30;99.90
36790;DHT22;22740;52.182;8.780;2023-08-06T03:54:51;14.30;99.90
36790;DHT22;22740;52.182;8.780;2023-08-06T04:01:02;14.30;99.90
36790;DHT22;22740;52.182;8.780;2023-08-06T04:07:04;14.30;99.90
36790;DHT22;22740;52.182;8.780;2023-08-06T04:13:06;14.20;99.90
36790;DHT22;22740;52.182;8.780;2023-08-06T04:19:08;14.20;99.90
36790;DHT22;22740;52.182;8.780;2023-08-06T04:25:10;14.10;99.90
36790;DHT22;22740;52.182;8.780;2023-08-06T04:31:11;14.20;99.90
36790;DHT22;22740;52.182;8.780;2023-08-06T04:37:13;14.20;99.90
36790;DHT22;22740;52.182;8.780;2023-08-06T04:43:15;14.10;99.90
36790;DHT22;22740;52.182;8.780;2023-08-06T04:49:17;14.10;99.90
36790;DHT22;22740;52.182;8.780;2023-08-06T04:55:19;14.10;99.90
36790;DHT22;22740;52.182;8.780;2023-08-06T05:01:21;14.10;99.90
36790;DHT22;22740;52.182;8.780;2023-08-06T05:07:23;14.50;99.90
36790;DHT22;22740;52.182;8.780;2023-08-06T05:13:25;15.00;99.90
36790;DHT22;22740;52.182;8.780;2023-08-06T05:19:27;14.80;99.90
36790;DHT22;22740;52.182;8.780;2023-08-06T05:25:28;14.50;99.90
36790;DHT22;22740;52.182;8.780;2023-08-06T05:31:30;14.60;99.90
36790;DHT22;22740;52.182;8.780;2023-08-06T05:37:32;14.90;99.90
36790;DHT22;22740;52.182;8.780;2023-08-06T05:43:34;14.90;99.90
36790;DHT22;22740;52.182;8.780;2023-08-06T05:49:35;14.90;99.90
36790;DHT22;22740;52.182;8.780;2023-08-06T05:55:39;15.00;99.90
36790;DHT22;22740;52.182;8.780;2023-08-06T06:01:40;15.00;99.90
36790;DHT22;22740;52.182;8.780;2023-08-06T06:07:42;15.20;99.90
36790;DHT22;22740;52.182;8.780;2023-08-06T06:13:44;15.20;99.90
36790;DHT22;22740;52.182;8.780;2023-08-06T06:19:45;15.20;99.90
36790;DHT22;22740;52.182;8.780;2023-08-06T06:25:49;15.30;99.90
36790;DHT22;22740;52.182;8.780;2023-08-06T06:31:50;15.40;99.90
36790;DHT22;22740;52.182;8.780;2023-08-06T06:37:53;15.80;99.90
36790;DHT22;22740;52.182;8.780;2023-08-06T06:43:55;16.30;99.90
36790;DHT22;22740;52.182;8.780;2023-08-06T06:50:00;16.70;99.90
36790;DHT22;22740;52.182;8.780;2023-08-06T06:56:03;16.60;99.90
36790;DHT22;22740;52.182;8.780;2023-08-06T07:02:05;16.50;99.90
36790;DHT22;22740;52.182;8.780;2023-08-06T07:08:07;16.70;99.90
36790;DHT22;22740;52.182;8.780;2023-08-06T07:14:09;16.60;99.90
36790;DHT22;22740;52.182;8.780;2023-08-06T07:20:10;16.70;99.90
36790;DHT22;22740;52.182;8.780;2023-08-06T07:26:12;16.60;99.90
36790;DHT22;22740;52.182;8.780;2023-08-06T07:32:14;16.80;99.90
36790;DHT22;22740;52.182;8.780;2023-08-06T07:38:16;16.90;99.90
36790;DHT22;22740;52.182;8.780;2023-08-06T07:44:17;17.10;99.90
36790;DHT22;22740;52.182;8.780;2023-08-06T07:50:19;17.20;99.90
36790;DHT22;22740;52.182;8.780;2023-08-06T07:56:21;17.30;99.90
36790;DHT22;22740;52.182;8.780;2023-08-06T08:02:23;17.30;99.90
36790;DHT22;22740;52.182;8.780;2023-08-06T08:08:25;17.40;99.90
36790;DHT22;22740;52.182;8.780;2023-08-06T08:14:27;17.50;99.90
36790;DHT22;22740;52.182;8.780;2023-08-06T08:20:30;17.60;99.90
36790;DHT22;22740;52.182;8.780;2023-08-06T08:26:36;17.50;99.90
36790;DHT22;22740;52.182;8.780;2023-08-06T08:32:38;17.60;99.90
36790;DHT22;22740;52.182;8.780;2023-08-06T08:38:40;17.20;99.90
36790;DHT22;22740;52.182;8.780;2023-08-06T08:44:42;17.20;99.90
36790;DHT22;22740;52.182;8.780;2023-08-06T08:50:44;17.20;99.90
36790;DHT22;22740;52.182;8.780;2023-08-06T08:56:46;17.30;99.90
36790;DHT22;22740;52.182;8.780;2023-08-06T09:02:48;17.10;99.90
36790;DHT22;22740;52.182;8.780;2023-08-06T09:09:09;17.20;99.90
36790;DHT22;22740;52.182;8.780;2023-08-06T09:15:13;17.20;99.90
36790;DHT22;22740;52.182;8.780;2023-08-06T09:21:15;17.20;99.90
36790;DHT22;22740;52.182;8.780;2023-08-06T09:27:19;17.30;99.90
36790;DHT22;22740;52.182;8.780;2023-08-06T09:33:23;17.30;99.90
36790;DHT22;22740;52.182;8.780;2023-08-06T09:39:26;17.30;99.90
36790;DHT22;22740;52.182;8.780;2023-08-06T09:45:32;17.30;99.90
36790;DHT22;22740;52.182;8.780;2023-08-06T09:51:34;17.30;99.90
36790;DHT22;22740;52.182;8.780;2023-08-06T09:57:36;17.40;99.90
36790;DHT22;22740;52.182;8.780;2023-08-06T10:03:38;17.60;99.90
36790;DHT22;22740;52.182;8.780;2023-08-06T10:09:40;17.70;99.90
36790;DHT22;22740;52.182;8.780;2023-08-06T10:15:42;18.10;99.90
36790;DHT22;22740;52.182;8.780;2023-08-06T10:22:18;19.00;99.90
36790;DHT22;22740;52.182;8.780;2023-08-06T10:28:15;19.70;99.90
36790;DHT22;22740;52.182;8.780;2023-08-06T10:34:19;20.40;99.90
36790;DHT22;22740;52.182;8.780;2023-08-06T10:40:21;20.00;99.90
36790;DHT22;22740;52.182;8.780;2023-08-06T10:46:23;19.40;99.90
36790;DHT22;22740;52.182;8.780;2023-08-06T10:52:28;19.80;99.90
36790;DHT22;22740;52.182;8.780;2023-08-06T10:58:33;20.70;99.90
36790;DHT22;22740;52.182;8.780;2023-08-06T11:04:35;21.00;99.90
36790;DHT22;22740;52.182;8.780;2023-08-06T11:10:37;20.50;99.90
36790;DHT22;22740;52.182;8.780;2023-08-06T11:16:45;20.70;99.90
36790;DHT22;22740;52.182;8.780;2023-08-06T11:22:47;20.40;99.90
36790;DHT22;22740;52.182;8.780;2023-08-06T11:28:49;20.20;99.90
36790;DHT22;22740;52.182;8.780;2023-08-06T11:34:52;20.30;99.90
36790;DHT22;22740;52.182;8.780;2023-08-06T11:40:54;20.20;99.90
36790;DHT22;22740;52.182;8.780;2023-08-06T11:46:56;20.40;99.90
36790;DHT22;22740;52.182;8.780;2023-08-06T11:52:58;21.10;99.90
36790;DHT22;22740;52.182;8.780;2023-08-06T11:59:01;21.20;99.90
36790;DHT22;22740;52.182;8.780;2023-08-06T12:11:11;21.10;99.90
36790;DHT22;22740;52.182;8.780;2023-08-06T12:17:12;20.90;99.90
36790;DHT22;22740;52.182;8.780;2023-08-06T12:23:14;20.20;99.90
36790;DHT22;22740;52.182;8.780;2023-08-06T12:29:17;19.60;99.90
36790;DHT22;22740;52.182;8.780;2023-08-06T12:35:18;19.50;99.90
36790;DHT22;22740;52.182;8.780;2023-08-06T12:41:21;19.20;99.90
36790;DHT22;22740;52.182;8.780;2023-08-06T12:47:23;19.30;99.90
36790;DHT22;22740;52.182;8.780;2023-08-06T12:53:25;19.40;99.90
36790;DHT22;22740;52.182;8.780;2023-08-06T12:59:26;20.30;99.90
36790;DHT22;22740;52.182;8.780;2023-08-06T13:05:28;20.90;99.90
36790;DHT22;22740;52.182;8.780;2023-08-06T13:11:30;20.60;99.90
36790;DHT22;22740;52.182;8.780;2023-08-06T13:17:35;20.10;99.90
36790;DHT22;22740;52.182;8.780;2023-08-06T13:23:37;19.90;99.90
36790;DHT22;22740;52.182;8.780;2023-08-06T13:29:39;19.90;99.90
36790;DHT22;22740;52.182;8.780;2023-08-06T13:35:40;19.70;99.90
36790;DHT22;22740;52.182;8.780;2023-08-06T13:41:42;19.60;99.90
36790;DHT22;22740;52.182;8.780;2023-08-06T13:47:44;19.80;99.90
36790;DHT22;22740;52.182;8.780;2023-08-06T13:53:46;19.80;99.90
36790;DHT22;22740;52.182;8.780;2023-08-06T13:59:48;19.80;99.90
36790;DHT22;22740;52.182;8.780;2023-08-06T14:05:50;19.80;99.90
36790;DHT22;22740;52.182;8.780;2023-08-06T14:11:51;19.50;99.90
36790;DHT22;22740;52.182;8.780;2023-08-06T14:17:53;19.00;99.90
36790;DHT22;22740;52.182;8.780;2023-08-06T14:23:55;18.80;99.90
36790;DHT22;22740;52.182;8.780;2023-08-06T14:29:56;18.80;99.90
36790;DHT22;22740;52.182;8.780;2023-08-06T14:35:58;18.90;99.90
36790;DHT22;22740;52.182;8.780;2023-08-06T14:42:00;18.90;99.90
36790;DHT22;22740;52.182;8.780;2023-08-06T14:48:01;18.90;99.90
36790;DHT22;22740;52.182;8.780;2023-08-06T14:54:03;19.00;99.90
36790;DHT22;22740;52.182;8.780;2023-08-06T15:00:05;18.80;99.90
36790;DHT22;22740;52.182;8.780;2023-08-06T15:06:08;18.70;99.90
36790;DHT22;22740;52.182;8.780;2023-08-06T15:12:09;18.40;99.90
36790;DHT22;22740;52.182;8.780;2023-08-06T15:18:11;18.00;99.90
36790;DHT22;22740;52.182;8.780;2023-08-06T15:24:13;17.80;99.90
36790;DHT22;22740;52.182;8.780;2023-08-06T15:30:15;17.60;99.90
36790;DHT22;22740;52.182;8.780;2023-08-06T15:36:16;17.50;99.90
36790;DHT22;22740;52.182;8.780;2023-08-06T15:42:18;17.50;99.90
36790;DHT22;22740;52.182;8.780;2023-08-06T15:48:20;17.00;99.90
36790;DHT22;22740;52.182;8.780;2023-08-06T15:54:22;17.00;99.90
36790;DHT22;22740;52.182;8.780;2023-08-06T16:00:23;16.60;99.90
36790;DHT22;22740;52.182;8.780;2023-08-06T16:06:25;16.30;99.90
36790;DHT22;22740;52.182;8.780;2023-08-06T16:12:28;16.40;99.90
36790;DHT22;22740;52.182;8.780;2023-08-06T16:18:30;16.60;99.90
36790;DHT22;22740;52.182;8.780;2023-08-06T16:24:32;16.60;99.90
36790;DHT22;22740;52.182;8.780;2023-08-06T16:30:34;16.50;99.90
36790;DHT22;22740;52.182;8.780;2023-08-06T16:36:35;16.60;99.90
36790;DHT22;22740;52.182;8.780;2023-08-06T16:42:37;16.40;99.90
36790;DHT22;22740;52.182;8.780;2023-08-06T16:48:39;16.30;99.90
36790;DHT22;22740;52.182;8.780;2023-08-06T16:54:41;16.30;99.90
36790;DHT22;22740;52.182;8.780;2023-08-06T17:00:46;16.00;99.90
36790;DHT22;22740;52.182;8.780;2023-08-06T17:06:48;15.60;99.90
36790;DHT22;22740;52.182;8.780;2023-08-06T17:12:50;15.50;99.90
36790;DHT22;22740;52.182;8.780;2023-08-06T17:18:56;15.10;99.90
36790;DHT22;22740;52.182;8.780;2023-08-06T17:24:57;14.90;99.90
36790;DHT22;22740;52.182;8.780;2023-08-06T17:30:59;14.90;99.90
36790;DHT22;22740;52.182;8.780;2023-08-06T17:37:01;14.80;99.90
36790;DHT22;22740;52.182;8.780;2023-08-06T17:43:06;14.80;99.90
36790;DHT22;22740;52.182;8.780;2023-08-06T17:49:08;14.80;99.90
36790;DHT22;22740;52.182;8.780;2023-08-06T17:55:10;14.70;99.90
36790;DHT22;22740;52.182;8.780;2023-08-06T18:01:11;14.70;99.90
36790;DHT22;22740;52.182;8.780;2023-08-06T18:07:13;14.60;99.90
36790;DHT22;22740;52.182;8.780;2023-08-06T18:13:15;14.60;99.90
36790;DHT22;22740;52.182;8.780;2023-08-06T18:19:17;14.50;99.90
36790;DHT22;22740;52.182;8.780;2023-08-06T18:25:19;14.50;99.90
36790;DHT22;22740;52.182;8.780;2023-08-06T18:31:21;14.50;99.90
36790;DHT22;22740;52.182;8.780;2023-08-06T18:37:23;14.60;99.90
36790;DHT22;22740;52.182;8.780;2023-08-06T18:43:24;14.70;99.90
36790;DHT22;22740;52.182;8.780;2023-08-06T18:49:26;14.90;99.90
36790;DHT22;22740;52.182;8.780;2023-08-06T18:55:29;14.70;99.90
36790;DHT22;22740;52.182;8.780;2023-08-06T19:01:32;14.60;99.90
36790;DHT22;22740;52.182;8.780;2023-08-06T19:07:34;14.50;99.90
36790;DHT22;22740;52.182;8.780;2023-08-06T19:13:35;14.40;99.90
36790;DHT22;22740;52.182;8.780;2023-08-06T19:19:37;14.40;99.90
36790;DHT22;22740;52.182;8.780;2023-08-06T19:25:39;14.50;99.90
36790;DHT22;22740;52.182;8.780;2023-08-06T19:31:41;14.60;99.90
36790;DHT22;22740;52.182;8.780;2023-08-06T19:38:03;14.50;99.90
36790;DHT22;22740;52.182;8.780;2023-08-06T19:44:05;14.70;99.90
36790;DHT22;22740;52.182;8.780;2023-08-06T19:50:07;14.80;99.90
36790;DHT22;22740;52.182;8.780;2023-08-06T19:56:09;14.80;99.90
36790;DHT22;22740;52.182;8.780;2023-08-06T20:02:11;14.80;99.90
36790;DHT22;22740;52.182;8.780;2023-08-06T20:08:12;14.90;99.90
36790;DHT22;22740;52.182;8.780;2023-08-06T20:14:14;14.90;99.90
36790;DHT22;22740;52.182;8.780;2023-08-06T20:20:16;14.90;99.90
36790;DHT22;22740;52.182;8.780;2023-08-06T20:26:18;14.90;99.90
36790;DHT22;22740;52.182;8.780;2023-08-06T20:32:19;14.90;99.90
36790;DHT22;22740;52.182;8.780;2023-08-06T20:38:21;14.90;99.90
36790;DHT22;22740;52.182;8.780;2023-08-06T20:44:24;14.80;99.90
36790;DHT22;22740;52.182;8.780;2023-08-06T20:50:28;14.80;99.90
36790;DHT22;22740;52.182;8.780;2023-08-06T20:56:30;14.80;99.90
36790;DHT22;22740;52.182;8.780;2023-08-06T21:02:31;14.70;99.90
36790;DHT22;22740;52.182;8.780;2023-08-06T21:08:34;14.60;99.90
36790;DHT22;22740;52.182;8.780;2023-08-06T21:14:36;14.50;99.90
36790;DHT22;22740;52.182;8.780;2023-08-06T21:20:38;14.50;99.90
36790;DHT22;22740;52.182;8.780;2023-08-06T21:26:40;14.50;99.90
36790;DHT22;22740;52.182;8.780;2023-08-06T21:32:41;14.50;99.90
36790;DHT22;22740;52.182;8.780;2023-08-06T21:38:43;14.40;99.90
36790;DHT22;22740;52.182;8.780;2023-08-06T21:44:45;14.50;99.90
36790;DHT22;22740;52.182;8.780;2023-08-06T21:50:47;14.50;99.90
36790;DHT22;22740;52.182;8.780;2023-08-06T21:56:48;14.50;99.90
36790;DHT22;22740;52.182;8.780;2023-08-06T22:02:50;14.40;99.90
36790;DHT22;22740;52.182;8.780;2023-08-06T22:08:52;14.30;99.90
36790;DHT22;22740;52.182;8.780;2023-08-06T22:14:55;14.30;99.90
36790;DHT22;22740;52.182;8.780;2023-08-06T22:20:57;14.30;99.90
36790;DHT22;22740;52.182;8.780;2023-08-06T22:26:58;14.40;99.90
36790;DHT22;22740;52.182;8.780;2023-08-06T22:33:00;14.30;99.90
36790;DHT22;22740;52.182;8.780;2023-08-06T22:39:02;14.30;99.90
36790;DHT22;22740;52.182;8.780;2023-08-06T22:45:04;14.20;99.90
36790;DHT22;22740;52.182;8.780;2023-08-06T22:51:06;14.20;99.90
36790;DHT22;22740;52.182;8.780;2023-08-06T22:57:08;14.20;99.90
36790;DHT22;22740;52.182;8.780;2023-08-06T23:03:10;14.20;99.90
36790;DHT22;22740;52.182;8.780;2023-08-06T23:09:13;14.10;99.90
36790;DHT22;22740;52.182;8.780;2023-08-06T23:15:15;14.10;99.90
36790;DHT22;22740;52.182;8.780;2023-08-06T23:21:17;14.10;99.90
36790;DHT22;22740;52.182;8.780;2023-08-06T23:27:19;14.00;99.90
36790;DHT22;22740;52.182;8.780;2023-08-06T23:33:20;14.00;99.90
36790;DHT22;22740;52.182;8.780;2023-08-06T23:39:22;14.00;99.90
36790;DHT22;22740;52.182;8.780;2023-08-06T23:45:25;14.00;99.90
36790;DHT22;22740;52.182;8.780;2023-08-06T23:51:26;14.00;99.90
36790;DHT22;22740;52.182;8.780;2023-08-06T23:57:28;14.00;99.90
